Kankakee, IL

11:23 PM CST on January 16, 2017 (GMT -0600)
Quail hallow | | Change Station

Elev 669 ft 41.16 °N, 87.84 °W | Updated 2 seconds ago

Overcast
Overcast
41.4 °F
Feels Like 41 °F
N
0.0
Wind Variable Wind from West

Today
High -- | Low -- °F
--% Chance of Precip.
Yesterday
High -- | Low -- °F
Precip. -- in
Pressure 29.84 in
Visibility 0.2 miles
Clouds Overcast 200 ft
Windchill 41 °F
Dew Point 40 °F
Humidity 96%
Rainfall 0.15 in
Snow Depth Not available.
7:13 AM 4:49 PM
Waning Gibbous, 75% visible
METAR KIKK 170515Z AUTO 00000KT 1/4SM FG OVC002 05/05 A2984 RMK AO2 T00530050
Pressure 29.84 in
Visibility 0.2 miles
Clouds Overcast 200 ft
Windchill 41 °F
Dew Point 40 °F
Humidity 96%
Rainfall 0.15 in
Snow Depth Not available.
7:13 AM 4:49 PM
Waning Gibbous, 75% visible
METAR KIKK 170515Z AUTO 00000KT 1/4SM FG OVC002 05/05 A2984 RMK AO2 T00530050

Get Your Daily Forecast Email!

Thanks for signing up!

Be on the lookout for a verification email in your inbox.

You'll start receiving the daily forecast at 8 AM.

×

10-Day Weather Forecast

Almanac

Astronomy

Jan. 16, 2017 Rise Set
Actual Time
Civil Twilight
Nautical Twilight
Astronomical Twilight
Moon
Length of Visible Light
Length of Day
Tomorrow will be .
, % of the Moon is Illuminated

Today's Extremes

State Highs State Lows

Community

WunderPhotos

Upload Photos

1,962,540 photos uploaded!

WunderBlog® & News

Nearby

Air Quality

  Air Quality AQ Index Pollutant
Not available.

Snow Depth

Station Depth Elevation

Earthquake Activity

City Distance Mag. Time & Date
Minimum magnitude displayed is 2.5.

Coastal Water Temperatures

Place Temperature

Stations

Nearby Weather Stations

Station Location Temp. Windchill Dew Point Humidity Wind Precip. Elev Updated Type
                   

Watches & Warnings

Dense Fog Advisory
Issued: 10:24 PM CST Jan. 16, 2017 – National Weather Service

... Dense fog advisory now in effect until 10 am CST Tuesday...

* visibility... quarter mile or less.

* Impacts... low visibilities will make travel hazardous across
the region.

Precautionary/preparedness actions...

A dense fog advisory means visibilities will frequently be
reduced to less than one quarter mile. If driving... slow down...
use your headlights... and leave plenty of distance ahead of you.





Marine Fog Advisory
Issued: 10:38 PM CST Jan. 16, 2017 – National Weather Service

... Dense fog advisory now in effect until 10 am CST Tuesday...

* visibility... less than 1/2 mile.

Precautionary/preparedness actions...

A dense fog advisory means visibilities will frequently be
reduced to less than one mile. Inexperienced mariners...
especially those operating smaller vessels should avoid
navigating in these conditions.